Terminal Aerodrome Forecast
Issued by NWS Charleston, SC

Home | Current Version | Previous Version | Text Only | Print | Product List | Glossary On
Versions: 1 2 3 4 5 6 7 8 9 10 11 12 13 14 15 16 17 18 19 20 21 22 23
000
FTUS42 KCHS 281700
TAFSAV
TAF
KSAV 281724Z 2818/2918 23008KT P6SM SCT015 SCT050
     FM290200 20003KT 6SM BR SCT010 BKN020
     FM290900 00000KT 2SM BR SCT006 BKN008
     FM291300 24006KT 6SM BR SCT007 BKN010=

USA.gov is the U.S. government's official web portal to all federal, state and local government web resources and services.